Home > Products > Valid Products > TAF

000
FTUS41 KAKQ 311600 AAA
TAFPHF
TAF AMD
KPHF 311615Z 3116/0112 03009KT P6SM SCT040
     FM312300 04005KT P6SM SCT035 BKN150
     FM011000 01005KT P6SM BKN035=



000
FTUS41 KAKQ 311600 AAA
TAFECG
TAF AMD
KECG 311612Z 3116/0112 01010G17KT P6SM SCT035 BKN060
     FM312300 02009KT P6SM SCT060 BKN150
     FM010500 35009KT P6SM SCT150=



000
FTUS41 KAKQ 311500 AAA
TAFORF
TAF AMD
KORF 311559Z 3116/0112 03010KT P6SM SCT035
     FM010100 01005KT P6SM SCT080
     FM011100 02008KT P6SM BKN025=



000
FTUS41 KAKQ 311500 AAA
TAFSBY
TAF AMD
KSBY 311555Z 3116/0112 02005KT P6SM BKN250
     FM311800 03007KT P6SM SKC
     FM010200 01004KT P6SM BKN035
     FM010800 36006KT P6SM BKN020=



000
FTUS41 KAKQ 311500 AAA
TAFRIC
TAF AMD
KRIC 311548Z 3116/0112 04006KT P6SM FEW035
     FM312000 02005KT P6SM BKN040
     FM010400 03004KT P6SM SCT035 BKN100=



000
FTUS41 KAKQ 311100
TAFSBY
TAF
KSBY 311137Z 3112/0112 02007KT P6SM BKN050
     FM312300 01005KT P6SM BKN040=



000
FTUS41 KAKQ 311100
TAFECG
TAF
KECG 311137Z 3112/0112 01010KT P6SM OVC250
     FM311400 02009KT P6SM SCT035 BKN250
     FM311800 36006KT P6SM BKN035=



000
FTUS41 KAKQ 311100
TAFORF
TAF
KORF 311137Z 3112/0112 02011KT P6SM OVC250
     FM311600 03010KT P6SM SCT035 BKN250
     FM312000 02008KT P6SM BKN035=



000
FTUS41 KAKQ 311100
TAFPHF
TAF
KPHF 311137Z 3112/0112 01006KT P6SM SCT050 BKN250
     FM311500 04009KT P6SM SCT040 BKN250
     FM311900 02005KT P6SM SCT030 BKN150=



000
FTUS41 KAKQ 311100
TAFRIC
TAF
KRIC 311137Z 3112/0112 01004KT P6SM SCT050 OVC250
     FM311700 04004KT P6SM BKN050
     FM312300 02005KT P6SM SCT040 BKN150=



000
FTUS41 KAKQ 310500
TAFECG
TAF
KECG 310524Z 3106/0106 01008KT P6SM SKC
     FM311400 02009KT P6SM SCT025 BKN250
     FM311800 02009KT P6SM BKN025=



000
FTUS41 KAKQ 310500
TAFSBY
TAF
KSBY 310524Z 3106/0106 02003KT P6SM FEW050
     FM311500 03007KT P6SM BKN050
     FM312300 02005KT P6SM BKN040=



000
FTUS41 KAKQ 310500
TAFPHF
TAF
KPHF 310524Z 3106/0106 03004KT P6SM SKC
     FM311400 04008KT P6SM SCT040 SCT250
     FM311900 04007KT P6SM BKN035=



000
FTUS41 KAKQ 310500
TAFRIC
TAF
KRIC 310524Z 3106/0106 02005KT P6SM FEW050
     FM311400 03006KT P6SM SCT050 SCT250
     FM312300 04005KT P6SM FEW040 BKN100=



000
FTUS41 KAKQ 310500
TAFORF
TAF
KORF 310524Z 3106/0106 04008KT P6SM SKC
     FM311400 03010KT P6SM SCT030 SCT250
     FM311800 03009KT P6SM BKN025=



000
FTUS41 KAKQ 302300
TAFORF
TAF
KORF 302320Z 3100/3124 03006KT P6SM SCT250
     FM311400 04009KT P6SM SCT040 SCT250
     FM311800 05012KT P6SM BKN030 OVC080=



000
FTUS41 KAKQ 302300
TAFPHF
TAF
KPHF 302320Z 3100/3124 02003KT P6SM SCT250
     FM311400 04007KT P6SM SCT040 SCT250
     FM312000 05008KT P6SM BKN030 BKN100=



000
FTUS41 KAKQ 302300
TAFECG
TAF
KECG 302320Z 3100/3124 01006KT P6SM SCT250
     FM311400 03007KT P6SM BKN040 BKN250
     FM311800 03009KT P6SM SCT020 BKN050=



000
FTUS41 KAKQ 302300
TAFSBY
TAF
KSBY 302320Z 3100/3124 36002KT P6SM FEW050 SCT250
     FM311600 04010KT P6SM BKN040 BKN250=



000
FTUS41 KAKQ 302300
TAFRIC
TAF
KRIC 302320Z 3100/3124 01003KT P6SM FEW250
     FM311400 04005KT P6SM SCT040 SCT250=



000
FTUS41 KAKQ 301700
TAFRIC
TAF
KRIC 301731Z 3018/3118 01008KT P6SM SCT050
     FM302300 02003KT P6SM SCT250
     FM311400 04005KT P6SM SCT040 SCT250=



000
FTUS41 KAKQ 301700
TAFORF
TAF
KORF 301731Z 3018/3118 02009KT P6SM SCT040
     FM302300 03006KT P6SM SCT250
     FM311400 04009KT P6SM SCT040 SCT250=



000
FTUS41 KAKQ 301700
TAFECG
TAF
KECG 301731Z 3018/3118 02010KT P6SM SCT040
     FM302300 01006KT P6SM SCT250
     FM311400 03009KT P6SM SCT040 SCT250=



000
FTUS41 KAKQ 301700
TAFSBY
TAF
KSBY 301731Z 3018/3118 34008KT P6SM SCT050
     FM302300 36002KT P6SM SCT250
     FM311400 04006KT P6SM SCT040 SCT250=



000
FTUS41 KAKQ 301700
TAFPHF
TAF
KPHF 301731Z 3018/3118 02007KT P6SM SCT040
     FM302300 02003KT P6SM SCT250
     FM311400 04007KT P6SM SCT040 SCT250=



000
FTUS41 KAKQ 301700
TAFORF
TAF
KORF 301731Z 3018/3118 02009KT P6SM SCT040
     FM302300 03006KT P6SM SCT250
     FM311400 04009KT P6SM SCT040 SCT250=



000
FTUS41 KAKQ 301700
TAFRIC
TAF
KRIC 301731Z 3018/3118 01008KT P6SM SCT050
     FM302300 02003KT P6SM SCT250
     FM311400 04005KT P6SM SCT040 SCT250=



000
FTUS41 KAKQ 301700
TAFECG
TAF
KECG 301731Z 3018/3118 02010KT P6SM SCT040
     FM302300 01006KT P6SM SCT250
     FM311400 03009KT P6SM SCT040 SCT250=



000
FTUS41 KAKQ 301700
TAFPHF
TAF
KPHF 301731Z 3018/3118 02007KT P6SM SCT040
     FM302300 02003KT P6SM SCT250
     FM311400 04007KT P6SM SCT040 SCT250=



000
FTUS41 KAKQ 301700
TAFSBY
TAF
KSBY 301731Z 3018/3118 34008KT P6SM SCT050
     FM302300 36002KT P6SM SCT250
     FM311400 04006KT P6SM SCT040 SCT250=



000
FTUS41 KAKQ 301400 AAC
TAFPHF
TAF AMD
KPHF 301423Z 3014/3112 01008KT P6SM FEW070
     FM302300 02006KT P6SM SCT250=



000
FTUS41 KAKQ 301400 AAB
TAFSBY
TAF AMD
KSBY 301421Z 3014/3112 33008KT P6SM SCT070
     FM302300 00000KT P6SM SCT250=



000
FTUS41 KAKQ 301400 AAA
TAFRIC
TAF AMD
KRIC 301420Z 3014/3112 36010KT P6SM SCT070
     FM310000 02004KT P6SM SCT250=



000
FTUS41 KAKQ 301200 AAB
TAFPHF
TAF AMD
KPHF 301232Z 3013/3112 36004KT 4SM BR SKC
      TEMPO 3013/3014 1/4SM FG VV004
     FM301500 02008KT P6SM FEW030
     FM302300 02006KT P6SM SCT250=



000
FTUS41 KAKQ 301200 AAA
TAFPHF
TAF AMD
KPHF 301208Z 3012/3112 36005KT 6SM BR FEW090
      TEMPO 3012/3013 1SM BR
     FM301500 02008KT P6SM FEW030
     FM302300 02006KT P6SM SCT250=



000
FTUS41 KAKQ 301200 AAA
TAFSBY
TAF AMD
KSBY 301207Z 3012/3112 33004KT P6SM SCT007 SCT100
      TEMPO 3012/3013 2SM BR
     FM301400 34008KT P6SM FEW040
     FM302300 00000KT P6SM SCT250=



000
FTUS41 KAKQ 301100 RRA
TAFPHF
TAF
KPHF 301141Z 3012/3112 36005KT 6SM BR FEW090
     FM301500 02008KT P6SM FEW030
     FM302300 02006KT P6SM SCT250=



000
FTUS41 KAKQ 301100 RRA
TAFORF
TAF
KORF 301141Z 3012/3112 01006KT P6SM SCT080
     FM301500 02009KT P6SM FEW030
     FM302300 03006KT P6SM SCT250=



000
FTUS41 KAKQ 301100 RRA
TAFRIC
TAF
KRIC 301141Z 3012/3112 34005KT P6SM SKC
      TEMPO 3012/3013 1/2SM FG BKN001
     FM301400 36008KT P6SM FEW050
     FM310000 02004KT P6SM SCT250=



000
FTUS41 KAKQ 301100 RRA
TAFECG
TAF
KECG 301141Z 3012/3112 36008KT P6SM SCT020 SCT070
     FM301500 02011KT P6SM FEW030
     FM302300 01007KT P6SM SCT250=



000
FTUS41 KAKQ 301100 RRA
TAFSBY
TAF
KSBY 301141Z 3012/3112 33004KT P6SM FEW100
     FM301400 34008KT P6SM FEW040
     FM302300 00000KT P6SM SCT250=



000
FTUS41 KAKQ 300500
TAFORF
TAF
KORF 300526Z 3006/3106 04010KT P6SM -RA BKN025
     FM300800 02010KT P6SM SCT020 BKN060
     FM301500 02010KT P6SM FEW030=



000
FTUS41 KAKQ 300500
TAFRIC
TAF
KRIC 300526Z 3006/3106 34003KT P6SM VCSH SCT050 BKN080
     FM300800 36004KT P6SM SCT070
     FM301400 36008KT P6SM FEW050=



000
FTUS41 KAKQ 300500
TAFPHF
TAF
KPHF 300526Z 3006/3106 04004KT P6SM VCSH BKN035
     FM300800 02007KT P6SM SCT030 BKN060
     FM301500 02009KT P6SM FEW040=



000
FTUS41 KAKQ 300500
TAFECG
TAF
KECG 300526Z 3006/3106 36013KT P6SM VCSH BKN040
     FM300800 36010KT P6SM SCT030 BKN050
     FM301500 01010KT P6SM FEW040=



000
FTUS41 KAKQ 300500
TAFSBY
TAF
KSBY 300526Z 3006/3106 00000KT P6SM SCT070
     FM301100 34005KT P6SM SCT050
     FM301600 34008KT P6SM FEW040=



000
FTUS41 KAKQ 300200 AAA
TAFPHF
TAF AMD
KPHF 300205Z 3002/3024 01006KT 5SM -RA SCT025 BKN050
     FM300400 01004KT P6SM FEW030 BKN070
     FM301400 01008KT P6SM FEW040=



000
FTUS41 KAKQ 300200 AAA
TAFORF
TAF AMD
KORF 300203Z 3002/3024 01010G15KT 5SM -RA SCT030 BKN040
     FM300500 02008KT P6SM FEW030 BKN070
     FM301600 02010KT P6SM SCT040=



000
FTUS41 KAKQ 292300
TAFORF
TAF
KORF 292335Z 3000/3024 01010G16KT P6SM VCSH BKN050 BKN250
     FM300200 01008KT P6SM VCSH SCT030 BKN050
     FM300600 02008KT P6SM FEW030 BKN070
     FM301600 02010KT P6SM SCT040=



000
FTUS41 KAKQ 292300
TAFPHF
TAF
KPHF 292335Z 3000/3024 03010KT P6SM VCSH BKN035 BKN250
     FM300200 01007KT P6SM VCSH SCT025 BKN050
     FM300400 01004KT P6SM FEW030 BKN070
     FM301400 01008KT P6SM FEW040=



000
FTUS41 KAKQ 292300
TAFRIC
TAF
KRIC 292335Z 3000/3024 36007KT P6SM VCSH SCT040 BKN050
     FM300300 36005KT P6SM SCT030 BKN070
     FM300900 36004KT P6SM SCT120
     FM301400 36009KT P6SM FEW050=



000
FTUS41 KAKQ 292300
TAFSBY
TAF
KSBY 292335Z 3000/3024 36007KT P6SM VCSH BKN040 OVC090
     FM300300 36003KT P6SM BKN050
     FM301000 34007KT P6SM SCT120
     FM301500 34010KT P6SM FEW050=



000
FTUS41 KAKQ 292300
TAFECG
TAF
KECG 292335Z 3000/3024 24004KT P6SM BKN250
     FM300100 35008KT P6SM VCSH SCT025 BKN050
     FM300800 36008KT P6SM SCT030 BKN070
     FM301400 01010KT P6SM BKN040=



000
FTUS41 KAKQ 292000 AAB
TAFSBY
TAF AMD
KSBY 292019Z 2920/3018 32012G17KT P6SM BKN040 OVC100
     FM292200 33010KT P6SM VCSH BKN040
     FM300700 36003KT P6SM BKN050
     FM301400 34007KT P6SM SCT040=



000
FTUS41 KAKQ 291900 AAA
TAFORF
TAF AMD
KORF 291905Z 2919/3018 25010KT P6SM SCT050 BKN250
     FM300200 01008KT P6SM VCSH SCT025 BKN050
     FM300900 02008KT P6SM SCT030 BKN070
     FM301400 02010KT P6SM SCT040=



000
FTUS41 KAKQ 291800 AAA
TAFSBY
TAF AMD
KSBY 291839Z 2919/3018 25010KT P6SM BKN030 OVC100
     FM292200 33006KT P6SM VCSH BKN040
     FM300700 36003KT P6SM BKN050
     FM301400 34007KT P6SM SCT040=



000
FTUS41 KAKQ 291700
TAFRIC
TAF
KRIC 291739Z 2918/3018 26009KT P6SM SCT050 BKN120
     FM292100 34007KT P6SM VCSH SCT025 BKN050
     FM300500 36005KT P6SM SCT030 BKN070
     FM301400 36008KT P6SM SCT040=



000
FTUS41 KAKQ 291700
TAFSBY
TAF
KSBY 291739Z 2918/3018 25009KT P6SM SCT050 SCT120
     FM292200 33006KT P6SM VCSH BKN040
     FM300700 36003KT P6SM BKN050
     FM301400 34007KT P6SM SCT040=



000
FTUS41 KAKQ 291700
TAFORF
TAF
KORF 291739Z 2918/3018 25012G18KT P6SM BKN250
     FM300200 01008KT P6SM VCSH SCT025 BKN050
     FM300900 02008KT P6SM SCT030 BKN070
     FM301400 02010KT P6SM SCT040=



000
FTUS41 KAKQ 291700
TAFPHF
TAF
KPHF 291739Z 2918/3018 25012G18KT P6SM BKN250
     FM300100 01006KT P6SM VCSH SCT025 BKN050
     FM300800 01004KT P6SM SCT030 BKN070
     FM301400 01008KT P6SM SCT040=



000
FTUS41 KAKQ 291700
TAFECG
TAF
KECG 291739Z 2918/3018 22011G18KT P6SM BKN250
     FM300300 35007KT P6SM VCSH SCT025 BKN050
     FM301000 36008KT P6SM SCT030 BKN070
     FM301400 01010KT P6SM BKN040=



000
FTUS41 KAKQ 291600 AAA
TAFSBY
TAF AMD
KSBY 291611Z 2916/3012 25011KT P6SM BKN250
     FM292100 33006KT P6SM VCSH BKN040
     FM300400 36004KT P6SM BKN050=



000
FTUS41 KAKQ 291500 AAA
TAFECG
TAF AMD
KECG 291504Z 2915/3012 23011KT P6SM BKN250
     FM300300 35007KT P6SM VCSH SCT020 BKN040
     FM300800 36007KT P6SM SCT030 BKN060=



000
FTUS41 KAKQ 291500 AAA
TAFPHF
TAF AMD
KPHF 291503Z 2915/3012 23011KT P6SM BKN250
     FM300000 01007KT P6SM VCSH SCT020 BKN040
     FM300600 02006KT P6SM SCT030 BKN070=



000
FTUS41 KAKQ 291500 AAA
TAFORF
TAF AMD
KORF 291501Z 2915/3012 22012KT P6SM BKN250
     FM300100 01008KT P6SM VCSH SCT020 BKN040
     FM300700 02010KT P6SM SCT030 BKN070=



000
FTUS41 KAKQ 291500 AAA
TAFRIC
TAF AMD
KRIC 291501Z 2915/3012 23008KT P6SM BKN250
     FM292100 35007KT P6SM VCSH SCT020 BKN035
     FM300400 36005KT P6SM SCT020 BKN070=



000
FTUS41 KAKQ 291100
TAFRIC
TAF
KRIC 291120Z 2912/3012 21007KT P6SM BKN250
     FM291500 27008KT P6SM BKN250
     FM292100 35007KT P6SM VCSH SCT020 BKN035
     FM300400 36005KT P6SM SCT020 BKN070=



000
FTUS41 KAKQ 291100
TAFPHF
TAF
KPHF 291120Z 2912/3012 23010KT P6SM SCT250
     FM291500 25010KT P6SM BKN250
     FM300000 01007KT P6SM VCSH SCT020 BKN040
     FM300600 02006KT P6SM SCT030 BKN070=



000
FTUS41 KAKQ 291100
TAFORF
TAF
KORF 291120Z 2912/3012 22011KT P6SM SCT250
     FM291600 25012KT P6SM BKN250
     FM300100 01008KT P6SM VCSH SCT020 BKN040
     FM300700 02010KT P6SM SCT030 BKN070=



000
FTUS41 KAKQ 291100
TAFECG
TAF
KECG 291120Z 2912/3012 22009KT P6SM SCT250
     FM291500 23011KT P6SM BKN250
     FM300300 35007KT P6SM VCSH SCT020 BKN040
     FM300800 36007KT P6SM SCT030 BKN060=



000
FTUS41 KAKQ 291100
TAFSBY
TAF
KSBY 291120Z 2912/3012 22008KT P6SM SCT250
     FM291500 26009KT P6SM BKN250
     FM292100 33006KT P6SM VCSH BKN040
     FM300400 36004KT P6SM BKN050=



000
FTUS41 KAKQ 290500
TAFPHF
TAF
KPHF 290520Z 2906/3006 22008KT P6SM SCT250
     FM291400 25010KT P6SM BKN250
     FM292200 01007KT P6SM VCSH SCT020 BKN040
     FM300400 02005KT P6SM SCT030 BKN070=



000
FTUS41 KAKQ 290500
TAFORF
TAF
KORF 290520Z 2906/3006 21010KT P6SM SCT250
     FM291400 25012KT P6SM BKN250
     FM292300 01007KT P6SM VCSH SCT020 BKN040
     FM300500 02008KT P6SM SCT030 BKN070=



000
FTUS41 KAKQ 290500
TAFECG
TAF
KECG 290520Z 2906/3006 21009KT P6SM SCT250
     FM291400 23011KT P6SM BKN250
     FM300200 35006KT P6SM VCSH SCT020 BKN040
     FM300500 36005KT P6SM SCT030 BKN060=



000
FTUS41 KAKQ 290500
TAFSBY
TAF
KSBY 290520Z 2906/3006 21007KT P6SM SCT250
     FM291400 27009KT P6SM BKN250
     FM292100 33006KT P6SM VCSH BKN040
     FM300200 36004KT P6SM BKN050=



000
FTUS41 KAKQ 290500
TAFRIC
TAF
KRIC 290520Z 2906/3006 21007KT P6SM BKN250
     FM291400 27008KT P6SM BKN250
     FM292000 35007KT P6SM VCSH SCT020 BKN035
     FM300300 36005KT P6SM SCT020 BKN070=



000
FTUS41 KAKQ 282300
TAFORF
TAF
KORF 282329Z 2900/2924 20009KT P6SM SCT250
     FM291400 23012KT P6SM BKN150
     FM292200 28010KT P6SM SCT040 BKN100=



000
FTUS41 KAKQ 282300
TAFECG
TAF
KECG 282329Z 2900/2924 20007KT P6SM SCT250
     FM291400 24010KT P6SM BKN150
     FM292200 23009KT P6SM SCT040 BKN100=



000
FTUS41 KAKQ 282300
TAFPHF
TAF
KPHF 282329Z 2900/2924 22008KT P6SM SCT250
     FM291400 23010KT P6SM BKN120
     FM292100 28010KT P6SM SCT030 BKN060=



000
FTUS41 KAKQ 282300
TAFSBY
TAF
KSBY 282329Z 2900/2924 18007KT P6SM BKN250
     FM291400 21010KT P6SM BKN150
     FM292000 29010KT P6SM SCT030 BKN050=



000
FTUS41 KAKQ 282300
TAFRIC
TAF
KRIC 282329Z 2900/2924 20007KT P6SM BKN250
     FM291400 23009KT P6SM BKN150
     FM292000 28010KT P6SM SCT030 OVC060=



    US Dept of Commerce
    National Oceanic and Atmospheric Administration
    National Weather Service
    1325 East West Highway
    Silver Spring, MD 20910
    Page Author: NWS Internet Services Team
Disclaimer
Information Quality
Credits
Glossary
Privacy Policy
Freedom of Information Act (FOIA)
About Us
Career Opportunities